sensor_id;sensor_type;location;lat;lon;timestamp;pressure;altitude;pressure_sealevel;temperature;humidity
69171;BME280;56279;47.902;12.308;2023-11-21T00:00:06;94927.06;;;8.88;72.69
69171;BME280;56279;47.902;12.308;2023-11-21T00:02:16;94932.03;;;8.89;72.59
69171;BME280;56279;47.902;12.308;2023-11-21T00:04:17;94918.88;;;8.89;72.51
69171;BME280;56279;47.902;12.308;2023-11-21T00:06:19;94925.72;;;8.90;72.44
69171;BME280;56279;47.902;12.308;2023-11-21T00:08:21;94918.13;;;8.89;72.39
69171;BME280;56279;47.902;12.308;2023-11-21T00:10:22;94913.91;;;8.88;72.57
69171;BME280;56279;47.902;12.308;2023-11-21T00:12:24;94919.94;;;8.88;72.24
69171;BME280;56279;47.902;12.308;2023-11-21T00:14:25;94909.94;;;8.90;72.02
69171;BME280;56279;47.902;12.308;2023-11-21T00:16:27;94914.41;;;8.90;71.99
69171;BME280;56279;47.902;12.308;2023-11-21T00:18:28;94912.84;;;8.89;72.20
69171;BME280;56279;47.902;12.308;2023-11-21T00:20:29;94910.75;;;8.86;71.97
69171;BME280;56279;47.902;12.308;2023-11-21T00:22:30;94912.09;;;8.83;72.40
69171;BME280;56279;47.902;12.308;2023-11-21T00:24:34;94909.22;;;8.80;72.50
69171;BME280;56279;47.902;12.308;2023-11-21T00:26:36;94905.31;;;8.77;72.46
69171;BME280;56279;47.902;12.308;2023-11-21T00:28:40;94909.78;;;8.77;72.13
69171;BME280;56279;47.902;12.308;2023-11-21T00:30:41;94905.31;;;8.77;72.50
69171;BME280;56279;47.902;12.308;2023-11-21T00:32:43;94912.66;;;8.75;72.09
69171;BME280;56279;47.902;12.308;2023-11-21T00:34:44;94907.41;;;8.75;72.18
69171;BME280;56279;47.902;12.308;2023-11-21T00:36:45;94915.03;;;8.77;72.14
69171;BME280;56279;47.902;12.308;2023-11-21T00:38:46;94916.59;;;8.78;72.38
69171;BME280;56279;47.902;12.308;2023-11-21T00:40:49;94910.56;;;8.77;72.16
69171;BME280;56279;47.902;12.308;2023-11-21T00:42:50;94903.44;;;8.78;72.11
69171;BME280;56279;47.902;12.308;2023-11-21T00:44:51;94904.22;;;8.78;71.90
69171;BME280;56279;47.902;12.308;2023-11-21T00:46:53;94910.28;;;8.79;72.02
69171;BME280;56279;47.902;12.308;2023-11-21T00:48:55;94919.47;;;8.81;71.66
69171;BME280;56279;47.902;12.308;2023-11-21T00:50:57;94918.41;;;8.82;71.86
69171;BME280;56279;47.902;12.308;2023-11-21T00:52:58;94921.81;;;8.83;71.59
69171;BME280;56279;47.902;12.308;2023-11-21T00:54:59;94922.34;;;8.85;71.31
69171;BME280;56279;47.902;12.308;2023-11-21T00:57:01;94909.69;;;8.87;70.95
69171;BME280;56279;47.902;12.308;2023-11-21T00:59:02;94916.53;;;8.88;71.54
69171;BME280;56279;47.902;12.308;2023-11-21T01:01:06;94926.25;;;8.87;71.51
69171;BME280;56279;47.902;12.308;2023-11-21T01:03:07;94925.47;;;8.87;71.52
69171;BME280;56279;47.902;12.308;2023-11-21T01:05:10;94914.44;;;8.85;71.33
69171;BME280;56279;47.902;12.308;2023-11-21T01:07:11;94924.72;;;8.86;71.29
69171;BME280;56279;47.902;12.308;2023-11-21T01:09:13;94921.56;;;8.84;71.43
69171;BME280;56279;47.902;12.308;2023-11-21T01:11:14;94913.13;;;8.82;71.75
69171;BME280;56279;47.902;12.308;2023-11-21T01:13:15;94905.81;;;8.79;71.54
69171;BME280;56279;47.902;12.308;2023-11-21T01:15:18;94915.59;;;8.74;72.17
69171;BME280;56279;47.902;12.308;2023-11-21T01:17:19;94914.81;;;8.68;72.39
69171;BME280;56279;47.902;12.308;2023-11-21T01:19:20;94916.44;;;8.64;72.46
69171;BME280;56279;47.902;12.308;2023-11-21T01:21:22;94907.25;;;8.62;72.42
69171;BME280;56279;47.902;12.308;2023-11-21T01:23:23;94908.59;;;8.59;72.91
69171;BME280;56279;47.902;12.308;2023-11-21T01:25:26;94902.31;;;8.55;72.80
69171;BME280;56279;47.902;12.308;2023-11-21T01:27:27;94902.09;;;8.52;73.39
69171;BME280;56279;47.902;12.308;2023-11-21T01:29:29;94896.56;;;8.48;73.02
69171;BME280;56279;47.902;12.308;2023-11-21T01:31:30;94894.47;;;8.45;73.30
69171;BME280;56279;47.902;12.308;2023-11-21T01:33:32;94898.44;;;8.43;73.49
69171;BME280;56279;47.902;12.308;2023-11-21T01:35:34;94893.47;;;8.41;73.56
69171;BME280;56279;47.902;12.308;2023-11-21T01:37:37;94897.41;;;8.39;74.09
69171;BME280;56279;47.902;12.308;2023-11-21T01:39:38;94888.81;;;8.33;74.25
69171;BME280;56279;47.902;12.308;2023-11-21T01:41:42;94899.06;;;8.29;74.42
69171;BME280;56279;47.902;12.308;2023-11-21T01:43:45;94891.97;;;8.25;74.61
69171;BME280;56279;47.902;12.308;2023-11-21T01:45:46;94892.28;;;8.18;75.28
69171;BME280;56279;47.902;12.308;2023-11-21T01:47:47;94896.25;;;8.11;75.82
69171;BME280;56279;47.902;12.308;2023-11-21T01:49:49;94896.56;;;8.04;76.13
69171;BME280;56279;47.902;12.308;2023-11-21T01:51:51;94895.00;;;7.98;76.24
69171;BME280;56279;47.902;12.308;2023-11-21T01:53:52;94892.91;;;7.95;76.43
69171;BME280;56279;47.902;12.308;2023-11-21T01:55:55;94893.44;;;7.92;76.84
69171;BME280;56279;47.902;12.308;2023-11-21T01:57:57;94886.09;;;7.89;77.26
69171;BME280;56279;47.902;12.308;2023-11-21T02:00:02;94886.91;;;7.85;77.24
69171;BME280;56279;47.902;12.308;2023-11-21T02:02:16;94887.72;;;7.80;77.27
69171;BME280;56279;47.902;12.308;2023-11-21T02:04:18;94878.31;;;7.74;77.41
69171;BME280;56279;47.902;12.308;2023-11-21T02:06:19;94879.91;;;7.70;77.81
69171;BME280;56279;47.902;12.308;2023-11-21T02:08:22;94887.81;;;7.65;78.23
69171;BME280;56279;47.902;12.308;2023-11-21T02:10:24;94884.66;;;7.63;78.47
69171;BME280;56279;47.902;12.308;2023-11-21T02:12:25;94882.03;;;7.63;78.71
69171;BME280;56279;47.902;12.308;2023-11-21T02:14:28;94878.88;;;7.61;78.65
69171;BME280;56279;47.902;12.308;2023-11-21T02:16:31;94879.94;;;7.60;78.53
69171;BME280;56279;47.902;12.308;2023-11-21T02:18:34;94880.19;;;7.58;79.04
69171;BME280;56279;47.902;12.308;2023-11-21T02:20:37;94875.22;;;7.57;78.77
69171;BME280;56279;47.902;12.308;2023-11-21T02:22:41;94875.22;;;7.57;78.83
69171;BME280;56279;47.902;12.308;2023-11-21T02:24:43;94869.16;;;7.56;78.85
69171;BME280;56279;47.902;12.308;2023-11-21T02:26:44;94867.34;;;7.57;79.09
69171;BME280;56279;47.902;12.308;2023-11-21T02:28:46;94872.06;;;7.55;79.37
69171;BME280;56279;47.902;12.308;2023-11-21T02:30:49;94869.72;;;7.53;79.35
69171;BME280;56279;47.902;12.308;2023-11-21T02:32:56;94875.50;;;7.50;79.48
69171;BME280;56279;47.902;12.308;2023-11-21T02:34:58;94871.56;;;7.48;79.70
69171;BME280;56279;47.902;12.308;2023-11-21T02:37:02;94871.34;;;7.44;79.46
69171;BME280;56279;47.902;12.308;2023-11-21T02:39:04;94863.47;;;7.39;79.99
69171;BME280;56279;47.902;12.308;2023-11-21T02:41:05;94864.78;;;7.37;80.11
69171;BME280;56279;47.902;12.308;2023-11-21T02:43:07;94869.25;;;7.36;80.67
69171;BME280;56279;47.902;12.308;2023-11-21T02:45:09;94866.91;;;7.35;80.32
69171;BME280;56279;47.902;12.308;2023-11-21T02:47:11;94862.69;;;7.34;80.56
69171;BME280;56279;47.902;12.308;2023-11-21T02:49:12;94868.97;;;7.33;80.94
69171;BME280;56279;47.902;12.308;2023-11-21T02:51:14;94868.22;;;7.32;81.14
69171;BME280;56279;47.902;12.308;2023-11-21T02:53:16;94871.38;;;7.29;81.08
69171;BME280;56279;47.902;12.308;2023-11-21T02:55:18;94864.03;;;7.26;81.34
69171;BME280;56279;47.902;12.308;2023-11-21T02:57:19;94863.78;;;7.23;81.38
69171;BME280;56279;47.902;12.308;2023-11-21T02:59:20;94865.34;;;7.24;81.48
69171;BME280;56279;47.902;12.308;2023-11-21T03:01:21;94860.09;;;7.24;81.29
69171;BME280;56279;47.902;12.308;2023-11-21T03:03:24;94857.22;;;7.25;81.74
69171;BME280;56279;47.902;12.308;2023-11-21T03:05:26;94858.00;;;7.26;81.78
69171;BME280;56279;47.902;12.308;2023-11-21T03:07:27;94860.63;;;7.26;81.38
69171;BME280;56279;47.902;12.308;2023-11-21T03:09:29;94858.25;;;7.24;81.29
69171;BME280;56279;47.902;12.308;2023-11-21T03:11:30;94861.69;;;7.25;81.71
69171;BME280;56279;47.902;12.308;2023-11-21T03:13:31;94863.25;;;7.26;81.96
69171;BME280;56279;47.902;12.308;2023-11-21T03:15:33;94863.25;;;7.26;81.89
69171;BME280;56279;47.902;12.308;2023-11-21T03:17:34;94852.75;;;7.26;82.05
69171;BME280;56279;47.902;12.308;2023-11-21T03:19:36;94858.00;;;7.26;81.70
69171;BME280;56279;47.902;12.308;2023-11-21T03:21:37;94856.16;;;7.26;81.64
69171;BME280;56279;47.902;12.308;2023-11-21T03:23:38;94863.78;;;7.28;82.00
69171;BME280;56279;47.902;12.308;2023-11-21T03:25:40;94852.22;;;7.29;81.94
69171;BME280;56279;47.902;12.308;2023-11-21T03:27:42;94850.09;;;7.31;82.06
69171;BME280;56279;47.902;12.308;2023-11-21T03:29:45;94850.09;;;7.31;81.87
69171;BME280;56279;47.902;12.308;2023-11-21T03:31:47;94847.22;;;7.32;81.92
69171;BME280;56279;47.902;12.308;2023-11-21T03:33:49;94850.38;;;7.34;82.12
69171;BME280;56279;47.902;12.308;2023-11-21T03:35:50;94857.97;;;7.36;82.38
69171;BME280;56279;47.902;12.308;2023-11-21T03:37:51;94854.53;;;7.40;82.23
69171;BME280;56279;47.902;12.308;2023-11-21T03:39:54;94855.03;;;7.42;81.81
69171;BME280;56279;47.902;12.308;2023-11-21T03:41:56;94860.84;;;7.44;82.04
69171;BME280;56279;47.902;12.308;2023-11-21T03:43:58;94853.47;;;7.46;82.31
69171;BME280;56279;47.902;12.308;2023-11-21T03:45:59;94849.00;;;7.47;82.25
69171;BME280;56279;47.902;12.308;2023-11-21T03:48:01;94851.09;;;7.50;82.25
69171;BME280;56279;47.902;12.308;2023-11-21T03:50:04;94853.72;;;7.50;82.50
69171;BME280;56279;47.902;12.308;2023-11-21T03:52:05;94852.66;;;7.51;82.32
69171;BME280;56279;47.902;12.308;2023-11-21T03:54:08;94862.38;;;7.50;82.58
69171;BME280;56279;47.902;12.308;2023-11-21T03:56:13;94858.16;;;7.49;82.56
69171;BME280;56279;47.902;12.308;2023-11-21T03:58:15;94862.66;;;7.49;82.81
69171;BME280;56279;47.902;12.308;2023-11-21T04:00:16;94870.00;;;7.47;82.84
69171;BME280;56279;47.902;12.308;2023-11-21T04:02:18;94871.06;;;7.46;82.45
69171;BME280;56279;47.902;12.308;2023-11-21T04:04:19;94870.28;;;7.45;83.00
69171;BME280;56279;47.902;12.308;2023-11-21T04:06:21;94870.56;;;7.44;82.66
69171;BME280;56279;47.902;12.308;2023-11-21T04:08:22;94870.03;;;7.42;82.78
69171;BME280;56279;47.902;12.308;2023-11-21T04:10:23;94872.66;;;7.42;82.93
69171;BME280;56279;47.902;12.308;2023-11-21T04:12:24;94875.28;;;7.42;82.84
69171;BME280;56279;47.902;12.308;2023-11-21T04:14:26;94876.59;;;7.39;83.07
69171;BME280;56279;47.902;12.308;2023-11-21T04:16:27;94874.00;;;7.34;83.38
69171;BME280;56279;47.902;12.308;2023-11-21T04:18:28;94881.06;;;7.34;83.72
69171;BME280;56279;47.902;12.308;2023-11-21T04:20:30;94874.78;;;7.30;83.74
69171;BME280;56279;47.902;12.308;2023-11-21T04:22:32;94865.63;;;7.22;84.06
69171;BME280;56279;47.902;12.308;2023-11-21T04:24:34;94866.16;;;7.14;84.60
69171;BME280;56279;47.902;12.308;2023-11-21T04:26:35;94864.59;;;7.08;84.62
69171;BME280;56279;47.902;12.308;2023-11-21T04:28:36;94872.47;;;7.03;85.47
69171;BME280;56279;47.902;12.308;2023-11-21T04:30:37;94874.06;;;6.99;85.59
69171;BME280;56279;47.902;12.308;2023-11-21T04:32:40;94871.72;;;6.97;85.82
69171;BME280;56279;47.902;12.308;2023-11-21T04:34:42;94874.84;;;6.94;85.85
69171;BME280;56279;47.902;12.308;2023-11-21T04:36:44;94869.88;;;6.93;86.56
69171;BME280;56279;47.902;12.308;2023-11-21T04:38:45;94865.94;;;6.90;86.55
69171;BME280;56279;47.902;12.308;2023-11-21T04:40:47;94865.41;;;6.88;86.79
69171;BME280;56279;47.902;12.308;2023-11-21T04:42:48;94870.66;;;6.88;86.90
69171;BME280;56279;47.902;12.308;2023-11-21T04:44:49;94871.72;;;6.87;86.72
69171;BME280;56279;47.902;12.308;2023-11-21T04:46:51;94880.09;;;6.89;87.18
69171;BME280;56279;47.902;12.308;2023-11-21T04:48:52;94875.66;;;6.90;87.29
69171;BME280;56279;47.902;12.308;2023-11-21T04:50:53;94871.19;;;6.90;87.48
69171;BME280;56279;47.902;12.308;2023-11-21T04:52:54;94873.03;;;6.90;87.49
69171;BME280;56279;47.902;12.308;2023-11-21T04:54:56;94871.19;;;6.90;88.07
69171;BME280;56279;47.902;12.308;2023-11-21T04:56:59;94869.63;;;6.89;87.95
69171;BME280;56279;47.902;12.308;2023-11-21T04:59:01;94872.75;;;6.91;88.50
69171;BME280;56279;47.902;12.308;2023-11-21T05:01:03;94876.69;;;6.94;88.59
69171;BME280;56279;47.902;12.308;2023-11-21T05:03:04;94876.16;;;6.97;88.69
69171;BME280;56279;47.902;12.308;2023-11-21T05:05:08;94875.38;;;6.96;88.89
69171;BME280;56279;47.902;12.308;2023-11-21T05:07:11;94881.94;;;6.99;89.08
69171;BME280;56279;47.902;12.308;2023-11-21T05:09:13;94862.25;;;7.02;89.03
69171;BME280;56279;47.902;12.308;2023-11-21T05:11:25;94866.44;;;7.03;88.74
69171;BME280;56279;47.902;12.308;2023-11-21T05:13:27;94864.09;;;7.06;88.98
69171;BME280;56279;47.902;12.308;2023-11-21T05:15:28;94858.84;;;7.06;88.71
69171;BME280;56279;47.902;12.308;2023-11-21T05:17:30;94866.19;;;7.09;89.09
69171;BME280;56279;47.902;12.308;2023-11-21T05:19:31;94864.06;;;7.11;89.41
69171;BME280;56279;47.902;12.308;2023-11-21T05:21:34;94872.75;;;7.12;89.48
69171;BME280;56279;47.902;12.308;2023-11-21T05:23:37;94870.13;;;7.12;89.30
69171;BME280;56279;47.902;12.308;2023-11-21T05:25:38;94873.78;;;7.11;89.46
69171;BME280;56279;47.902;12.308;2023-11-21T05:27:40;94870.38;;;7.10;90.05
69171;BME280;56279;47.902;12.308;2023-11-21T05:29:41;94867.75;;;7.10;89.79
69171;BME280;56279;47.902;12.308;2023-11-21T05:31:42;94868.53;;;7.11;90.32
69171;BME280;56279;47.902;12.308;2023-11-21T05:33:43;94867.75;;;7.10;90.19
69171;BME280;56279;47.902;12.308;2023-11-21T05:35:44;94873.50;;;7.12;89.79
69171;BME280;56279;47.902;12.308;2023-11-21T05:37:46;94868.25;;;7.12;90.25
69171;BME280;56279;47.902;12.308;2023-11-21T05:39:49;94873.25;;;7.14;90.30
69171;BME280;56279;47.902;12.308;2023-11-21T05:41:50;94869.56;;;7.15;90.01
69171;BME280;56279;47.902;12.308;2023-11-21T05:43:51;94876.41;;;7.16;89.85
69171;BME280;56279;47.902;12.308;2023-11-21T05:45:56;94877.94;;;7.17;89.15
69171;BME280;56279;47.902;12.308;2023-11-21T05:47:58;94875.09;;;7.18;89.44
69171;BME280;56279;47.902;12.308;2023-11-21T05:50:00;94884.25;;;7.21;88.87
69171;BME280;56279;47.902;12.308;2023-11-21T05:52:02;94884.00;;;7.22;89.24
69171;BME280;56279;47.902;12.308;2023-11-21T05:54:04;94877.44;;;7.25;88.95
69171;BME280;56279;47.902;12.308;2023-11-21T05:56:05;94881.34;;;7.27;88.29
69171;BME280;56279;47.902;12.308;2023-11-21T05:58:07;94881.88;;;7.29;88.21
69171;BME280;56279;47.902;12.308;2023-11-21T06:00:11;94883.47;;;7.30;88.40
69171;BME280;56279;47.902;12.308;2023-11-21T06:02:16;94890.25;;;7.31;87.79
69171;BME280;56279;47.902;12.308;2023-11-21T06:04:17;94890.78;;;7.33;88.17
69171;BME280;56279;47.902;12.308;2023-11-21T06:06:19;94896.03;;;7.33;87.52
69171;BME280;56279;47.902;12.308;2023-11-21T06:08:20;94899.72;;;7.32;87.58
69171;BME280;56279;47.902;12.308;2023-11-21T06:10:22;94905.72;;;7.33;87.88
69171;BME280;56279;47.902;12.308;2023-11-21T06:12:25;94907.31;;;7.34;87.91
69171;BME280;56279;47.902;12.308;2023-11-21T06:14:27;94904.19;;;7.32;87.52
69171;BME280;56279;47.902;12.308;2023-11-21T06:16:28;94901.81;;;7.30;87.55
69171;BME280;56279;47.902;12.308;2023-11-21T06:18:30;94913.09;;;7.31;87.63
69171;BME280;56279;47.902;12.308;2023-11-21T06:20:31;94917.56;;;7.30;87.59
69171;BME280;56279;47.902;12.308;2023-11-21T06:22:33;94924.66;;;7.30;87.90
69171;BME280;56279;47.902;12.308;2023-11-21T06:24:34;94922.28;;;7.28;87.77
69171;BME280;56279;47.902;12.308;2023-11-21T06:26:35;94919.13;;;7.26;88.23
69171;BME280;56279;47.902;12.308;2023-11-21T06:28:37;94926.50;;;7.24;88.17
69171;BME280;56279;47.902;12.308;2023-11-21T06:30:42;94928.88;;;7.21;88.35
69171;BME280;56279;47.902;12.308;2023-11-21T06:32:45;94931.50;;;7.21;88.48
69171;BME280;56279;47.902;12.308;2023-11-21T06:34:49;94929.41;;;7.18;88.99
69171;BME280;56279;47.902;12.308;2023-11-21T06:36:50;94926.78;;;7.18;88.61
69171;BME280;56279;47.902;12.308;2023-11-21T06:38:53;94931.75;;;7.19;88.92
69171;BME280;56279;47.902;12.308;2023-11-21T06:40:54;94937.78;;;7.20;88.90
69171;BME280;56279;47.902;12.308;2023-11-21T06:42:55;94937.25;;;7.23;88.80
69171;BME280;56279;47.902;12.308;2023-11-21T06:44:59;94932.00;;;7.23;89.08
69171;BME280;56279;47.902;12.308;2023-11-21T06:47:06;94938.06;;;7.23;89.36
69171;BME280;56279;47.902;12.308;2023-11-21T06:49:08;94943.81;;;7.20;89.67
69171;BME280;56279;47.902;12.308;2023-11-21T06:51:10;94949.88;;;7.21;89.54
69171;BME280;56279;47.902;12.308;2023-11-21T06:53:11;94943.56;;;7.22;89.45
69171;BME280;56279;47.902;12.308;2023-11-21T06:55:12;94951.41;;;7.22;89.76
69171;BME280;56279;47.902;12.308;2023-11-21T06:57:14;94952.22;;;7.22;89.77
69171;BME280;56279;47.902;12.308;2023-11-21T06:59:15;94949.06;;;7.20;89.92
69171;BME280;56279;47.902;12.308;2023-11-21T07:01:18;94956.44;;;7.18;90.12
69171;BME280;56279;47.902;12.308;2023-11-21T07:03:19;94958.25;;;7.18;90.56
69171;BME280;56279;47.902;12.308;2023-11-21T07:05:21;94957.47;;;7.12;90.75
69171;BME280;56279;47.902;12.308;2023-11-21T07:07:23;94958.78;;;7.10;91.09
69171;BME280;56279;47.902;12.308;2023-11-21T07:09:24;94956.69;;;7.07;90.88
69171;BME280;56279;47.902;12.308;2023-11-21T07:11:27;94956.69;;;7.07;91.17
69171;BME280;56279;47.902;12.308;2023-11-21T07:13:29;94958.00;;;7.09;91.66
69171;BME280;56279;47.902;12.308;2023-11-21T07:15:30;94962.72;;;7.12;91.39
69171;BME280;56279;47.902;12.308;2023-11-21T07:17:31;94959.84;;;7.14;91.79
69171;BME280;56279;47.902;12.308;2023-11-21T07:19:32;94957.97;;;7.14;91.75
69171;BME280;56279;47.902;12.308;2023-11-21T07:21:35;94951.41;;;7.17;92.22
69171;BME280;56279;47.902;12.308;2023-11-21T07:23:36;94957.75;;;7.16;91.60
69171;BME280;56279;47.902;12.308;2023-11-21T07:25:38;94949.88;;;7.16;92.61
69171;BME280;56279;47.902;12.308;2023-11-21T07:27:39;94954.59;;;7.19;92.46
69171;BME280;56279;47.902;12.308;2023-11-21T07:29:40;94956.44;;;7.23;92.59
69171;BME280;56279;47.902;12.308;2023-11-21T07:31:41;94957.75;;;7.26;92.54
69171;BME280;56279;47.902;12.308;2023-11-21T07:33:43;94958.78;;;7.30;92.00
69171;BME280;56279;47.902;12.308;2023-11-21T07:35:44;94957.47;;;7.32;92.81
69171;BME280;56279;47.902;12.308;2023-11-21T07:37:45;94960.84;;;7.38;92.39
69171;BME280;56279;47.902;12.308;2023-11-21T07:39:48;94956.91;;;7.40;92.61
69171;BME280;56279;47.902;12.308;2023-11-21T07:41:49;94962.44;;;7.44;92.87
69171;BME280;56279;47.902;12.308;2023-11-21T07:43:51;94961.13;;;7.46;92.64
69171;BME280;56279;47.902;12.308;2023-11-21T07:45:52;94963.69;;;7.51;92.69
69171;BME280;56279;47.902;12.308;2023-11-21T07:47:55;94961.88;;;7.57;92.44
69171;BME280;56279;47.902;12.308;2023-11-21T07:49:56;94965.00;;;7.64;92.91
69171;BME280;56279;47.902;12.308;2023-11-21T07:51:57;94960.78;;;7.68;92.62
69171;BME280;56279;47.902;12.308;2023-11-21T07:53:59;94960.53;;;7.70;92.45
69171;BME280;56279;47.902;12.308;2023-11-21T07:56:04;94955.81;;;7.66;92.49
69171;BME280;56279;47.902;12.308;2023-11-21T07:58:06;94953.97;;;7.67;92.52
69171;BME280;56279;47.902;12.308;2023-11-21T08:00:07;94959.22;;;7.67;92.71
69171;BME280;56279;47.902;12.308;2023-11-21T08:02:13;94962.09;;;7.65;92.69
69171;BME280;56279;47.902;12.308;2023-11-21T08:04:15;94960.53;;;7.64;92.95
69171;BME280;56279;47.902;12.308;2023-11-21T08:06:18;94960.25;;;7.66;92.78
69171;BME280;56279;47.902;12.308;2023-11-21T08:08:19;94964.47;;;7.62;93.11
69171;BME280;56279;47.902;12.308;2023-11-21T08:10:20;94957.69;;;7.56;92.99
69171;BME280;56279;47.902;12.308;2023-11-21T08:12:22;94968.69;;;7.58;93.54
69171;BME280;56279;47.902;12.308;2023-11-21T08:14:23;94954.25;;;7.60;93.17
69171;BME280;56279;47.902;12.308;2023-11-21T08:16:28;94963.44;;;7.63;93.77
69171;BME280;56279;47.902;12.308;2023-11-21T08:18:29;94962.09;;;7.65;93.46
69171;BME280;56279;47.902;12.308;2023-11-21T08:20:31;94965.50;;;7.66;93.21
69171;BME280;56279;47.902;12.308;2023-11-21T08:22:32;94960.78;;;7.68;93.36
69171;BME280;56279;47.902;12.308;2023-11-21T08:24:35;94962.09;;;7.71;93.53
69171;BME280;56279;47.902;12.308;2023-11-21T08:26:37;94964.19;;;7.74;94.02
69171;BME280;56279;47.902;12.308;2023-11-21T08:28:38;94964.44;;;7.77;93.50
69171;BME280;56279;47.902;12.308;2023-11-21T08:30:40;94959.16;;;7.82;93.89
69171;BME280;56279;47.902;12.308;2023-11-21T08:32:42;94967.81;;;7.88;93.51
69171;BME280;56279;47.902;12.308;2023-11-21T08:34:44;94966.72;;;7.94;93.79
69171;BME280;56279;47.902;12.308;2023-11-21T08:36:46;94966.22;;;7.97;93.37
69171;BME280;56279;47.902;12.308;2023-11-21T08:38:47;94968.31;;;8.00;93.48
69171;BME280;56279;47.902;12.308;2023-11-21T08:40:49;94962.50;;;8.03;93.26
69171;BME280;56279;47.902;12.308;2023-11-21T08:42:51;94968.00;;;8.06;93.43
69171;BME280;56279;47.902;12.308;2023-11-21T08:44:53;94971.94;;;8.09;93.36
69171;BME280;56279;47.902;12.308;2023-11-21T08:46:54;94960.91;;;8.12;93.19
69171;BME280;56279;47.902;12.308;2023-11-21T08:48:56;94967.47;;;8.14;92.98
69171;BME280;56279;47.902;12.308;2023-11-21T08:50:57;94971.13;;;8.13;93.32
69171;BME280;56279;47.902;12.308;2023-11-21T08:52:58;94973.25;;;8.11;93.17
69171;BME280;56279;47.902;12.308;2023-11-21T08:54:59;94972.75;;;8.09;92.82
69171;BME280;56279;47.902;12.308;2023-11-21T08:57:04;94975.63;;;8.08;93.12
69171;BME280;56279;47.902;12.308;2023-11-21T08:59:06;94972.47;;;8.06;93.32
69171;BME280;56279;47.902;12.308;2023-11-21T09:01:09;94977.72;;;8.06;92.83
69171;BME280;56279;47.902;12.308;2023-11-21T09:03:10;94979.31;;;8.07;93.11
69171;BME280;56279;47.902;12.308;2023-11-21T09:05:12;94982.47;;;8.09;93.43
69171;BME280;56279;47.902;12.308;2023-11-21T09:07:14;94975.88;;;8.11;93.13
69171;BME280;56279;47.902;12.308;2023-11-21T09:09:16;94983.22;;;8.14;92.89
69171;BME280;56279;47.902;12.308;2023-11-21T09:11:17;94983.19;;;8.19;92.95
69171;BME280;56279;47.902;12.308;2023-11-21T09:13:19;94987.91;;;8.22;93.20
69171;BME280;56279;47.902;12.308;2023-11-21T09:15:20;94983.47;;;8.28;92.82
69171;BME280;56279;47.902;12.308;2023-11-21T09:17:21;94989.47;;;8.33;92.73
69171;BME280;56279;47.902;12.308;2023-11-21T09:19:22;94989.94;;;8.41;92.50
69171;BME280;56279;47.902;12.308;2023-11-21T09:21:24;94990.44;;;8.48;92.58
69171;BME280;56279;47.902;12.308;2023-11-21T09:23:26;94991.44;;;8.57;92.32
69171;BME280;56279;47.902;12.308;2023-11-21T09:25:28;94992.47;;;8.66;92.12
69171;BME280;56279;47.902;12.308;2023-11-21T09:27:29;94995.56;;;8.73;92.23
69171;BME280;56279;47.902;12.308;2023-11-21T09:29:31;95001.59;;;8.78;91.60
69171;BME280;56279;47.902;12.308;2023-11-21T09:31:33;95000.25;;;8.81;91.24
69171;BME280;56279;47.902;12.308;2023-11-21T09:33:34;94995.00;;;8.81;91.22
69171;BME280;56279;47.902;12.308;2023-11-21T09:35:39;94999.22;;;8.82;90.53
69171;BME280;56279;47.902;12.308;2023-11-21T09:37:40;95002.88;;;8.81;90.62
69171;BME280;56279;47.902;12.308;2023-11-21T09:39:41;95002.38;;;8.79;90.61
69171;BME280;56279;47.902;12.308;2023-11-21T09:41:48;95007.38;;;8.75;90.24
69171;BME280;56279;47.902;12.308;2023-11-21T09:43:54;95004.75;;;8.75;90.46
69171;BME280;56279;47.902;12.308;2023-11-21T09:46:06;95005.81;;;8.74;90.51
69171;BME280;56279;47.902;12.308;2023-11-21T09:48:12;95014.50;;;8.75;90.11
69171;BME280;56279;47.902;12.308;2023-11-21T09:50:17;95007.69;;;8.69;89.85
69171;BME280;56279;47.902;12.308;2023-11-21T09:52:28;95007.97;;;8.67;90.03
69171;BME280;56279;47.902;12.308;2023-11-21T09:54:31;95003.75;;;8.66;90.63
69171;BME280;56279;47.902;12.308;2023-11-21T09:56:32;95001.63;;;8.68;90.65
69171;BME280;56279;47.902;12.308;2023-11-21T09:58:34;94994.28;;;8.70;90.78
69171;BME280;56279;47.902;12.308;2023-11-21T10:00:36;94997.41;;;8.72;90.46
69171;BME280;56279;47.902;12.308;2023-11-21T10:02:38;94999.78;;;8.69;90.47
69171;BME280;56279;47.902;12.308;2023-11-21T10:04:41;95002.16;;;8.70;90.64
69171;BME280;56279;47.902;12.308;2023-11-21T10:06:43;94993.72;;;8.73;90.75
69171;BME280;56279;47.902;12.308;2023-11-21T10:08:47;94994.22;;;8.75;90.82
69171;BME280;56279;47.902;12.308;2023-11-21T10:10:51;94994.75;;;8.77;90.62
69171;BME280;56279;47.902;12.308;2023-11-21T10:12:56;94990.00;;;8.79;90.94
69171;BME280;56279;47.902;12.308;2023-11-21T10:14:58;94997.34;;;8.82;90.78
69171;BME280;56279;47.902;12.308;2023-11-21T10:17:01;94997.31;;;8.87;90.64
69171;BME280;56279;47.902;12.308;2023-11-21T10:19:04;94997.81;;;8.89;90.59
69171;BME280;56279;47.902;12.308;2023-11-21T10:21:07;94996.47;;;8.92;90.62
69171;BME280;56279;47.902;12.308;2023-11-21T10:23:10;95001.50;;;8.93;90.50
69171;BME280;56279;47.902;12.308;2023-11-21T10:25:12;95000.16;;;8.96;90.00
69171;BME280;56279;47.902;12.308;2023-11-21T10:27:17;95006.69;;;8.98;89.93
69171;BME280;56279;47.902;12.308;2023-11-21T10:29:19;95001.97;;;9.00;89.86
69171;BME280;56279;47.902;12.308;2023-11-21T10:31:22;95000.34;;;9.04;89.81
69171;BME280;56279;47.902;12.308;2023-11-21T10:33:28;95004.28;;;9.07;89.64
69171;BME280;56279;47.902;12.308;2023-11-21T10:35:45;95003.50;;;9.07;89.40
69171;BME280;56279;47.902;12.308;2023-11-21T10:38:01;94996.38;;;9.07;89.33
69171;BME280;56279;47.902;12.308;2023-11-21T10:40:03;95003.28;;;9.03;89.26
69171;BME280;56279;47.902;12.308;2023-11-21T10:42:08;95005.94;;;8.98;88.81
69171;BME280;56279;47.902;12.308;2023-11-21T10:44:13;95005.69;;;8.94;88.87
69171;BME280;56279;47.902;12.308;2023-11-21T10:46:15;95002.53;;;8.92;89.08